sensor_id;sensor_type;location;lat;lon;timestamp;temperature;humidity
8965;DHT22;4517;49.020;12.066;2022-10-17T00:01:50;12.60;99.90
8965;DHT22;4517;49.020;12.066;2022-10-17T00:04:15;12.50;99.90
8965;DHT22;4517;49.020;12.066;2022-10-17T00:06:41;12.50;99.90
8965;DHT22;4517;49.020;12.066;2022-10-17T00:09:07;12.60;99.90
8965;DHT22;4517;49.020;12.066;2022-10-17T00:11:33;12.60;99.90
8965;DHT22;4517;49.020;12.066;2022-10-17T00:13:59;12.60;99.90
8965;DHT22;4517;49.020;12.066;2022-10-17T00:16:34;12.50;99.90
8965;DHT22;4517;49.020;12.066;2022-10-17T00:19:02;12.50;99.90
8965;DHT22;4517;49.020;12.066;2022-10-17T00:21:28;12.50;99.90
8965;DHT22;4517;49.020;12.066;2022-10-17T00:23:54;12.50;99.90
8965;DHT22;4517;49.020;12.066;2022-10-17T00:26:20;12.50;99.90
8965;DHT22;4517;49.020;12.066;2022-10-17T00:28:47;12.50;99.90
8965;DHT22;4517;49.020;12.066;2022-10-17T00:31:15;12.60;99.90
8965;DHT22;4517;49.020;12.066;2022-10-17T00:33:41;12.50;99.90
8965;DHT22;4517;49.020;12.066;2022-10-17T00:36:10;12.50;99.90
8965;DHT22;4517;49.020;12.066;2022-10-17T00:38:37;12.50;99.90
8965;DHT22;4517;49.020;12.066;2022-10-17T00:41:03;12.50;99.90
8965;DHT22;4517;49.020;12.066;2022-10-17T00:43:46;12.50;99.90
8965;DHT22;4517;49.020;12.066;2022-10-17T00:46:13;12.50;99.90
8965;DHT22;4517;49.020;12.066;2022-10-17T00:48:38;12.50;99.90
8965;DHT22;4517;49.020;12.066;2022-10-17T00:51:04;12.50;99.90
8965;DHT22;4517;49.020;12.066;2022-10-17T00:53:30;12.50;99.90
8965;DHT22;4517;49.020;12.066;2022-10-17T00:55:56;12.40;99.90
8965;DHT22;4517;49.020;12.066;2022-10-17T00:58:21;12.30;99.90
8965;DHT22;4517;49.020;12.066;2022-10-17T01:00:47;12.30;99.90
8965;DHT22;4517;49.020;12.066;2022-10-17T01:03:13;12.30;99.90
8965;DHT22;4517;49.020;12.066;2022-10-17T01:05:40;12.20;99.90
8965;DHT22;4517;49.020;12.066;2022-10-17T01:08:06;12.20;99.90
8965;DHT22;4517;49.020;12.066;2022-10-17T01:10:53;12.20;99.90
8965;DHT22;4517;49.020;12.066;2022-10-17T01:13:41;12.30;99.90
8965;DHT22;4517;49.020;12.066;2022-10-17T01:16:15;12.20;99.90
8965;DHT22;4517;49.020;12.066;2022-10-17T01:19:11;12.10;99.90
8965;DHT22;4517;49.020;12.066;2022-10-17T01:22:00;12.00;99.90
8965;DHT22;4517;49.020;12.066;2022-10-17T01:30:39;12.00;99.90
8965;DHT22;4517;49.020;12.066;2022-10-17T01:33:21;12.00;99.90
8965;DHT22;4517;49.020;12.066;2022-10-17T01:38:25;11.70;99.90
8965;DHT22;4517;49.020;12.066;2022-10-17T01:41:01;11.70;99.90
8965;DHT22;4517;49.020;12.066;2022-10-17T01:43:40;11.70;99.90
8965;DHT22;4517;49.020;12.066;2022-10-17T01:46:21;11.60;99.90
8965;DHT22;4517;49.020;12.066;2022-10-17T01:48:49;11.60;99.90
8965;DHT22;4517;49.020;12.066;2022-10-17T01:51:20;11.50;99.90
8965;DHT22;4517;49.020;12.066;2022-10-17T01:56:40;11.30;99.90
8965;DHT22;4517;49.020;12.066;2022-10-17T01:59:20;11.30;99.90
8965;DHT22;4517;49.020;12.066;2022-10-17T02:01:50;11.40;99.90
8965;DHT22;4517;49.020;12.066;2022-10-17T02:04:16;11.30;99.90
8965;DHT22;4517;49.020;12.066;2022-10-17T02:06:42;11.30;99.90
8965;DHT22;4517;49.020;12.066;2022-10-17T02:09:25;11.20;99.90
8965;DHT22;4517;49.020;12.066;2022-10-17T02:15:16;11.00;99.90
8965;DHT22;4517;49.020;12.066;2022-10-17T02:18:10;11.10;99.90
8965;DHT22;4517;49.020;12.066;2022-10-17T02:20:52;11.20;99.90
8965;DHT22;4517;49.020;12.066;2022-10-17T02:26:32;11.10;99.90
8965;DHT22;4517;49.020;12.066;2022-10-17T02:29:14;11.00;99.90
8965;DHT22;4517;49.020;12.066;2022-10-17T02:34:23;10.90;99.90
8965;DHT22;4517;49.020;12.066;2022-10-17T02:36:57;10.90;99.90
8965;DHT22;4517;49.020;12.066;2022-10-17T02:39:26;11.00;99.90
8965;DHT22;4517;49.020;12.066;2022-10-17T02:41:55;11.00;99.90
8965;DHT22;4517;49.020;12.066;2022-10-17T02:44:22;10.90;99.90
8965;DHT22;4517;49.020;12.066;2022-10-17T02:46:54;10.90;99.90
8965;DHT22;4517;49.020;12.066;2022-10-17T02:49:23;10.80;99.90
8965;DHT22;4517;49.020;12.066;2022-10-17T02:52:01;10.70;99.90
8965;DHT22;4517;49.020;12.066;2022-10-17T02:59:50;10.90;99.90
8965;DHT22;4517;49.020;12.066;2022-10-17T03:02:16;10.80;99.90
8965;DHT22;4517;49.020;12.066;2022-10-17T03:04:43;10.80;99.90
8965;DHT22;4517;49.020;12.066;2022-10-17T03:07:09;10.70;99.90
8965;DHT22;4517;49.020;12.066;2022-10-17T03:09:34;10.70;99.90
8965;DHT22;4517;49.020;12.066;2022-10-17T03:12:00;10.60;99.90
8965;DHT22;4517;49.020;12.066;2022-10-17T03:14:26;10.60;99.90
8965;DHT22;4517;49.020;12.066;2022-10-17T03:16:51;10.50;99.90
8965;DHT22;4517;49.020;12.066;2022-10-17T03:19:17;10.50;99.90
8965;DHT22;4517;49.020;12.066;2022-10-17T03:21:42;10.50;99.90
8965;DHT22;4517;49.020;12.066;2022-10-17T03:24:08;10.40;99.90
8965;DHT22;4517;49.020;12.066;2022-10-17T03:26:33;10.30;99.90
8965;DHT22;4517;49.020;12.066;2022-10-17T03:28:59;10.40;99.90
8965;DHT22;4517;49.020;12.066;2022-10-17T03:31:25;10.30;99.90
8965;DHT22;4517;49.020;12.066;2022-10-17T03:33:50;10.30;99.90
8965;DHT22;4517;49.020;12.066;2022-10-17T03:36:17;10.20;99.90
8965;DHT22;4517;49.020;12.066;2022-10-17T03:38:44;10.10;99.90
8965;DHT22;4517;49.020;12.066;2022-10-17T03:41:11;10.20;99.90
8965;DHT22;4517;49.020;12.066;2022-10-17T03:43:37;10.20;99.90
8965;DHT22;4517;49.020;12.066;2022-10-17T03:46:03;10.20;99.90
8965;DHT22;4517;49.020;12.066;2022-10-17T03:48:30;10.10;99.90
8965;DHT22;4517;49.020;12.066;2022-10-17T03:51:03;10.10;99.90
8965;DHT22;4517;49.020;12.066;2022-10-17T03:53:29;10.10;99.90
8965;DHT22;4517;49.020;12.066;2022-10-17T03:55:56;10.10;99.90
8965;DHT22;4517;49.020;12.066;2022-10-17T03:58:21;10.00;99.90
8965;DHT22;4517;49.020;12.066;2022-10-17T04:00:47;10.00;99.90
8965;DHT22;4517;49.020;12.066;2022-10-17T04:03:13;10.00;99.90
8965;DHT22;4517;49.020;12.066;2022-10-17T04:05:38;9.90;99.90
8965;DHT22;4517;49.020;12.066;2022-10-17T04:08:04;9.90;99.90
8965;DHT22;4517;49.020;12.066;2022-10-17T04:10:29;9.90;99.90
8965;DHT22;4517;49.020;12.066;2022-10-17T04:12:55;9.90;99.90
8965;DHT22;4517;49.020;12.066;2022-10-17T04:15:21;10.00;99.90
8965;DHT22;4517;49.020;12.066;2022-10-17T04:17:46;10.00;99.90
8965;DHT22;4517;49.020;12.066;2022-10-17T04:20:12;10.00;99.90
8965;DHT22;4517;49.020;12.066;2022-10-17T04:22:37;10.00;99.90
8965;DHT22;4517;49.020;12.066;2022-10-17T04:25:03;10.20;99.90
8965;DHT22;4517;49.020;12.066;2022-10-17T04:27:29;10.30;99.90
8965;DHT22;4517;49.020;12.066;2022-10-17T04:29:54;10.40;99.90
8965;DHT22;4517;49.020;12.066;2022-10-17T04:32:20;10.30;99.90
8965;DHT22;4517;49.020;12.066;2022-10-17T04:34:48;10.10;99.90
8965;DHT22;4517;49.020;12.066;2022-10-17T04:37:14;10.00;99.90
8965;DHT22;4517;49.020;12.066;2022-10-17T04:39:40;9.90;99.90
8965;DHT22;4517;49.020;12.066;2022-10-17T04:42:05;9.80;99.90
8965;DHT22;4517;49.020;12.066;2022-10-17T04:44:31;9.70;99.90
8965;DHT22;4517;49.020;12.066;2022-10-17T04:46:58;9.70;99.90
8965;DHT22;4517;49.020;12.066;2022-10-17T04:49:23;9.70;99.90
8965;DHT22;4517;49.020;12.066;2022-10-17T04:51:49;9.80;99.90
8965;DHT22;4517;49.020;12.066;2022-10-17T04:54:14;10.00;99.90
8965;DHT22;4517;49.020;12.066;2022-10-17T04:56:40;10.00;99.90
8965;DHT22;4517;49.020;12.066;2022-10-17T04:59:05;10.10;99.90
8965;DHT22;4517;49.020;12.066;2022-10-17T05:01:31;10.10;99.90
8965;DHT22;4517;49.020;12.066;2022-10-17T05:03:56;10.10;99.90
8965;DHT22;4517;49.020;12.066;2022-10-17T05:06:25;10.10;99.90
8965;DHT22;4517;49.020;12.066;2022-10-17T05:08:52;10.20;99.90
8965;DHT22;4517;49.020;12.066;2022-10-17T05:11:26;10.20;99.90
8965;DHT22;4517;49.020;12.066;2022-10-17T05:13:59;10.10;99.90
8965;DHT22;4517;49.020;12.066;2022-10-17T05:16:26;10.10;99.90
8965;DHT22;4517;49.020;12.066;2022-10-17T05:18:54;10.10;99.90
8965;DHT22;4517;49.020;12.066;2022-10-17T05:21:20;10.10;99.90
8965;DHT22;4517;49.020;12.066;2022-10-17T05:23:46;10.20;99.90
8965;DHT22;4517;49.020;12.066;2022-10-17T05:26:12;10.20;99.90
8965;DHT22;4517;49.020;12.066;2022-10-17T05:28:37;10.20;99.90
8965;DHT22;4517;49.020;12.066;2022-10-17T05:31:08;10.30;99.90
8965;DHT22;4517;49.020;12.066;2022-10-17T05:33:35;10.30;99.90
8965;DHT22;4517;49.020;12.066;2022-10-17T05:36:00;10.40;99.90
8965;DHT22;4517;49.020;12.066;2022-10-17T05:38:26;10.40;99.90
8965;DHT22;4517;49.020;12.066;2022-10-17T05:40:59;10.40;99.90
8965;DHT22;4517;49.020;12.066;2022-10-17T05:43:25;10.50;99.90
8965;DHT22;4517;49.020;12.066;2022-10-17T05:45:52;10.50;99.90
8965;DHT22;4517;49.020;12.066;2022-10-17T05:48:17;10.50;99.90
8965;DHT22;4517;49.020;12.066;2022-10-17T05:50:43;10.50;99.90
8965;DHT22;4517;49.020;12.066;2022-10-17T05:53:09;10.50;99.90
8965;DHT22;4517;49.020;12.066;2022-10-17T05:55:34;10.50;99.90
8965;DHT22;4517;49.020;12.066;2022-10-17T05:58:00;10.50;99.90
8965;DHT22;4517;49.020;12.066;2022-10-17T06:00:26;10.60;99.90
8965;DHT22;4517;49.020;12.066;2022-10-17T06:02:52;10.60;99.90
8965;DHT22;4517;49.020;12.066;2022-10-17T06:05:19;10.70;99.90
8965;DHT22;4517;49.020;12.066;2022-10-17T06:07:45;10.70;99.90
8965;DHT22;4517;49.020;12.066;2022-10-17T06:10:12;10.70;99.90
8965;DHT22;4517;49.020;12.066;2022-10-17T06:12:40;10.70;99.90
8965;DHT22;4517;49.020;12.066;2022-10-17T06:15:07;10.80;99.90
8965;DHT22;4517;49.020;12.066;2022-10-17T06:17:32;10.90;99.90
8965;DHT22;4517;49.020;12.066;2022-10-17T06:19:58;11.00;99.90
8965;DHT22;4517;49.020;12.066;2022-10-17T06:22:24;11.10;99.90
8965;DHT22;4517;49.020;12.066;2022-10-17T06:24:49;11.10;99.90
8965;DHT22;4517;49.020;12.066;2022-10-17T06:27:16;11.10;99.90
8965;DHT22;4517;49.020;12.066;2022-10-17T06:29:42;11.20;99.90
8965;DHT22;4517;49.020;12.066;2022-10-17T06:32:08;11.20;99.90
8965;DHT22;4517;49.020;12.066;2022-10-17T06:34:33;11.30;99.90
8965;DHT22;4517;49.020;12.066;2022-10-17T06:36:59;11.40;99.90
8965;DHT22;4517;49.020;12.066;2022-10-17T06:39:24;11.40;99.90
8965;DHT22;4517;49.020;12.066;2022-10-17T06:41:51;11.40;99.90
8965;DHT22;4517;49.020;12.066;2022-10-17T06:44:16;11.40;99.90
8965;DHT22;4517;49.020;12.066;2022-10-17T06:46:42;11.50;99.90
8965;DHT22;4517;49.020;12.066;2022-10-17T06:49:09;11.60;99.90
8965;DHT22;4517;49.020;12.066;2022-10-17T06:51:35;11.70;99.90
8965;DHT22;4517;49.020;12.066;2022-10-17T06:54:01;11.90;99.90
8965;DHT22;4517;49.020;12.066;2022-10-17T06:56:27;12.10;99.90
8965;DHT22;4517;49.020;12.066;2022-10-17T06:58:52;12.00;99.90
8965;DHT22;4517;49.020;12.066;2022-10-17T07:01:19;12.00;99.90
8965;DHT22;4517;49.020;12.066;2022-10-17T07:03:47;12.10;99.90
8965;DHT22;4517;49.020;12.066;2022-10-17T07:06:13;12.30;99.90
8965;DHT22;4517;49.020;12.066;2022-10-17T07:08:42;12.40;99.90
8965;DHT22;4517;49.020;12.066;2022-10-17T07:11:14;12.50;99.90
8965;DHT22;4517;49.020;12.066;2022-10-17T07:13:41;12.60;99.90
8965;DHT22;4517;49.020;12.066;2022-10-17T07:16:07;12.80;99.90
8965;DHT22;4517;49.020;12.066;2022-10-17T07:18:33;12.80;99.90
8965;DHT22;4517;49.020;12.066;2022-10-17T07:20:59;13.00;99.90
8965;DHT22;4517;49.020;12.066;2022-10-17T07:23:24;13.00;99.90
8965;DHT22;4517;49.020;12.066;2022-10-17T07:25:50;13.10;99.90
8965;DHT22;4517;49.020;12.066;2022-10-17T07:28:16;13.10;99.90
8965;DHT22;4517;49.020;12.066;2022-10-17T07:30:42;13.20;99.90
8965;DHT22;4517;49.020;12.066;2022-10-17T07:33:08;13.10;99.90
8965;DHT22;4517;49.020;12.066;2022-10-17T07:35:33;13.30;99.90
8965;DHT22;4517;49.020;12.066;2022-10-17T07:37:59;13.20;99.90
8965;DHT22;4517;49.020;12.066;2022-10-17T07:40:24;13.20;99.90
8965;DHT22;4517;49.020;12.066;2022-10-17T07:42:50;13.20;99.90
8965;DHT22;4517;49.020;12.066;2022-10-17T07:45:16;13.20;99.90
8965;DHT22;4517;49.020;12.066;2022-10-17T07:47:42;13.30;99.90
8965;DHT22;4517;49.020;12.066;2022-10-17T07:50:08;13.10;99.90
8965;DHT22;4517;49.020;12.066;2022-10-17T07:52:33;13.20;99.90
8965;DHT22;4517;49.020;12.066;2022-10-17T07:54:59;13.30;99.90
8965;DHT22;4517;49.020;12.066;2022-10-17T07:57:24;13.30;99.90
8965;DHT22;4517;49.020;12.066;2022-10-17T07:59:50;13.30;99.90
8965;DHT22;4517;49.020;12.066;2022-10-17T08:02:23;13.20;99.90
8965;DHT22;4517;49.020;12.066;2022-10-17T08:04:50;13.20;99.90
8965;DHT22;4517;49.020;12.066;2022-10-17T08:07:15;13.20;99.90
8965;DHT22;4517;49.020;12.066;2022-10-17T08:09:42;13.40;99.90
8965;DHT22;4517;49.020;12.066;2022-10-17T08:12:08;13.60;99.90
8965;DHT22;4517;49.020;12.066;2022-10-17T08:14:33;13.80;99.90
8965;DHT22;4517;49.020;12.066;2022-10-17T08:16:59;14.00;99.90
8965;DHT22;4517;49.020;12.066;2022-10-17T08:19:24;14.00;99.90
8965;DHT22;4517;49.020;12.066;2022-10-17T08:21:50;14.20;99.90
8965;DHT22;4517;49.020;12.066;2022-10-17T08:24:16;14.20;99.90
8965;DHT22;4517;49.020;12.066;2022-10-17T08:26:42;14.30;99.90
8965;DHT22;4517;49.020;12.066;2022-10-17T08:29:12;14.50;99.90
8965;DHT22;4517;49.020;12.066;2022-10-17T08:31:38;14.50;99.90
8965;DHT22;4517;49.020;12.066;2022-10-17T08:34:04;14.80;99.90
8965;DHT22;4517;49.020;12.066;2022-10-17T08:36:29;15.00;99.90
8965;DHT22;4517;49.020;12.066;2022-10-17T08:38:55;15.20;99.90
8965;DHT22;4517;49.020;12.066;2022-10-17T08:46:47;15.10;99.90
8965;DHT22;4517;49.020;12.066;2022-10-17T08:49:37;15.30;99.90
8965;DHT22;4517;49.020;12.066;2022-10-17T08:52:10;15.50;99.90
8965;DHT22;4517;49.020;12.066;2022-10-17T08:54:42;15.60;99.90
8965;DHT22;4517;49.020;12.066;2022-10-17T08:57:15;15.70;99.90
8965;DHT22;4517;49.020;12.066;2022-10-17T08:59:42;15.60;99.90
8965;DHT22;4517;49.020;12.066;2022-10-17T09:08:21;15.60;99.90
8965;DHT22;4517;49.020;12.066;2022-10-17T09:10:56;15.60;99.90
8965;DHT22;4517;49.020;12.066;2022-10-17T09:18:50;15.80;99.90
8965;DHT22;4517;49.020;12.066;2022-10-17T09:24:00;15.90;99.90
8965;DHT22;4517;49.020;12.066;2022-10-17T09:26:27;16.00;99.90
8965;DHT22;4517;49.020;12.066;2022-10-17T09:28:56;16.00;99.90
8965;DHT22;4517;49.020;12.066;2022-10-17T09:31:42;16.10;99.90
8965;DHT22;4517;49.020;12.066;2022-10-17T09:34:10;16.10;99.90
8965;DHT22;4517;49.020;12.066;2022-10-17T09:36:39;16.20;99.90
8965;DHT22;4517;49.020;12.066;2022-10-17T09:39:17;16.30;99.90
8965;DHT22;4517;49.020;12.066;2022-10-17T09:44:24;16.40;99.90
8965;DHT22;4517;49.020;12.066;2022-10-17T09:49:53;16.60;99.90
8965;DHT22;4517;49.020;12.066;2022-10-17T09:52:34;16.70;99.90
8965;DHT22;4517;49.020;12.066;2022-10-17T09:55:16;16.60;99.90
8965;DHT22;4517;49.020;12.066;2022-10-17T09:57:56;16.60;99.90
8965;DHT22;4517;49.020;12.066;2022-10-17T10:00:28;16.70;99.90
8965;DHT22;4517;49.020;12.066;2022-10-17T10:03:16;16.80;99.90
8965;DHT22;4517;49.020;12.066;2022-10-17T10:05:57;17.00;99.90
8965;DHT22;4517;49.020;12.066;2022-10-17T10:08:29;16.90;99.90
8965;DHT22;4517;49.020;12.066;2022-10-17T10:11:04;17.00;99.90
8965;DHT22;4517;49.020;12.066;2022-10-17T10:13:32;17.20;99.90
8965;DHT22;4517;49.020;12.066;2022-10-17T10:16:31;17.20;99.90
8965;DHT22;4517;49.020;12.066;2022-10-17T10:18:57;17.20;99.90
8965;DHT22;4517;49.020;12.066;2022-10-17T10:21:25;17.30;99.90
8965;DHT22;4517;49.020;12.066;2022-10-17T10:26:47;17.40;99.90
8965;DHT22;4517;49.020;12.066;2022-10-17T10:29:29;17.40;99.90
8965;DHT22;4517;49.020;12.066;2022-10-17T10:34:53;17.50;99.90
8965;DHT22;4517;49.020;12.066;2022-10-17T10:37:35;17.50;99.90
8965;DHT22;4517;49.020;12.066;2022-10-17T10:42:46;17.70;99.90
8965;DHT22;4517;49.020;12.066;2022-10-17T10:45:19;17.70;99.90
8965;DHT22;4517;49.020;12.066;2022-10-17T10:50:51;17.80;99.90
8965;DHT22;4517;49.020;12.066;2022-10-17T10:56:21;18.00;99.90
8965;DHT22;4517;49.020;12.066;2022-10-17T10:59:02;18.00;99.90
8965;DHT22;4517;49.020;12.066;2022-10-17T11:06:47;18.10;99.90
8965;DHT22;4517;49.020;12.066;2022-10-17T11:09:25;18.20;99.90
8965;DHT22;4517;49.020;12.066;2022-10-17T11:12:06;18.30;99.90
8965;DHT22;4517;49.020;12.066;2022-10-17T11:14:41;18.40;99.90
8965;DHT22;4517;49.020;12.066;2022-10-17T11:19:58;18.50;99.90
8965;DHT22;4517;49.020;12.066;2022-10-17T11:22:30;18.60;99.90
8965;DHT22;4517;49.020;12.066;2022-10-17T11:25:33;18.80;99.90
8965;DHT22;4517;49.020;12.066;2022-10-17T11:27:59;18.90;99.90
8965;DHT22;4517;49.020;12.066;2022-10-17T11:30:28;19.00;99.90
8965;DHT22;4517;49.020;12.066;2022-10-17T11:32:59;19.10;99.90
8965;DHT22;4517;49.020;12.066;2022-10-17T11:35:26;19.20;99.90
8965;DHT22;4517;49.020;12.066;2022-10-17T11:40:30;19.30;99.90
8965;DHT22;4517;49.020;12.066;2022-10-17T11:43:03;19.30;99.90
8965;DHT22;4517;49.020;12.066;2022-10-17T11:45:38;19.30;99.90
8965;DHT22;4517;49.020;12.066;2022-10-17T11:48:28;19.30;99.90
8965;DHT22;4517;49.020;12.066;2022-10-17T11:51:08;19.30;99.90
8965;DHT22;4517;49.020;12.066;2022-10-17T11:53:55;19.20;99.90
8965;DHT22;4517;49.020;12.066;2022-10-17T11:56:30;19.30;99.90
8965;DHT22;4517;49.020;12.066;2022-10-17T12:01:53;19.30;99.90
8965;DHT22;4517;49.020;12.066;2022-10-17T12:05:03;19.30;99.90
8965;DHT22;4517;49.020;12.066;2022-10-17T12:07:54;19.30;99.90
8965;DHT22;4517;49.020;12.066;2022-10-17T12:10:44;19.30;99.90
8965;DHT22;4517;49.020;12.066;2022-10-17T12:18:44;19.50;99.90
8965;DHT22;4517;49.020;12.066;2022-10-17T12:21:10;19.60;99.90
8965;DHT22;4517;49.020;12.066;2022-10-17T12:23:36;19.70;99.90
8965;DHT22;4517;49.020;12.066;2022-10-17T12:26:07;19.80;99.90
8965;DHT22;4517;49.020;12.066;2022-10-17T12:33:48;20.00;99.90
8965;DHT22;4517;49.020;12.066;2022-10-17T12:38:50;20.00;99.90
8965;DHT22;4517;49.020;12.066;2022-10-17T12:41:45;19.90;99.90
8965;DHT22;4517;49.020;12.066;2022-10-17T12:44:06;19.90;99.90
8965;DHT22;4517;49.020;12.066;2022-10-17T12:49:44;19.90;99.90
8965;DHT22;4517;49.020;12.066;2022-10-17T12:52:22;19.90;99.90
8965;DHT22;4517;49.020;12.066;2022-10-17T12:57:33;19.90;99.90
8965;DHT22;4517;49.020;12.066;2022-10-17T13:00:33;19.90;99.90
8965;DHT22;4517;49.020;12.066;2022-10-17T13:05:33;19.90;99.90
8965;DHT22;4517;49.020;12.066;2022-10-17T13:08:02;19.90;99.90
8965;DHT22;4517;49.020;12.066;2022-10-17T13:10:31;20.00;99.90
8965;DHT22;4517;49.020;12.066;2022-10-17T13:15:32;20.10;99.90
8965;DHT22;4517;49.020;12.066;2022-10-17T13:17:59;20.20;99.90
8965;DHT22;4517;49.020;12.066;2022-10-17T13:20:28;20.20;99.90
8965;DHT22;4517;49.020;12.066;2022-10-17T13:22:55;20.30;99.90
8965;DHT22;4517;49.020;12.066;2022-10-17T13:25:22;20.30;99.90
8965;DHT22;4517;49.020;12.066;2022-10-17T13:27:49;20.30;99.90
8965;DHT22;4517;49.020;12.066;2022-10-17T13:30:29;20.40;99.90
8965;DHT22;4517;49.020;12.066;2022-10-17T13:32:55;20.30;99.90
8965;DHT22;4517;49.020;12.066;2022-10-17T13:35:34;20.40;99.90
8965;DHT22;4517;49.020;12.066;2022-10-17T13:38:04;20.50;99.90
8965;DHT22;4517;49.020;12.066;2022-10-17T13:40:39;20.60;99.90
8965;DHT22;4517;49.020;12.066;2022-10-17T13:43:20;20.70;99.90
8965;DHT22;4517;49.020;12.066;2022-10-17T13:45:54;20.80;99.90
8965;DHT22;4517;49.020;12.066;2022-10-17T13:48:25;20.80;99.90
8965;DHT22;4517;49.020;12.066;2022-10-17T13:50:54;20.80;99.90
8965;DHT22;4517;49.020;12.066;2022-10-17T13:53:34;20.70;99.90
8965;DHT22;4517;49.020;12.066;2022-10-17T13:56:03;20.70;99.90
8965;DHT22;4517;49.020;12.066;2022-10-17T13:58:41;20.70;99.90
8965;DHT22;4517;49.020;12.066;2022-10-17T14:01:07;20.70;99.90
8965;DHT22;4517;49.020;12.066;2022-10-17T14:03:33;20.80;99.90
8965;DHT22;4517;49.020;12.066;2022-10-17T14:06:20;20.90;99.90
8965;DHT22;4517;49.020;12.066;2022-10-17T14:08:48;20.80;99.90
8965;DHT22;4517;49.020;12.066;2022-10-17T14:11:28;20.80;99.90
8965;DHT22;4517;49.020;12.066;2022-10-17T14:13:55;20.70;99.90
8965;DHT22;4517;49.020;12.066;2022-10-17T14:16:22;20.60;99.90
8965;DHT22;4517;49.020;12.066;2022-10-17T14:18:50;20.60;99.90
8965;DHT22;4517;49.020;12.066;2022-10-17T14:21:25;20.50;99.90
8965;DHT22;4517;49.020;12.066;2022-10-17T14:26:51;20.50;99.90
8965;DHT22;4517;49.020;12.066;2022-10-17T14:29:31;20.40;99.90
8965;DHT22;4517;49.020;12.066;2022-10-17T14:32:05;20.30;99.90
8965;DHT22;4517;49.020;12.066;2022-10-17T14:34:37;20.20;99.90
8965;DHT22;4517;49.020;12.066;2022-10-17T14:37:27;20.20;99.90
8965;DHT22;4517;49.020;12.066;2022-10-17T14:39:54;20.20;99.90
8965;DHT22;4517;49.020;12.066;2022-10-17T14:42:21;20.20;99.90
8965;DHT22;4517;49.020;12.066;2022-10-17T14:44:52;20.20;99.90
8965;DHT22;4517;49.020;12.066;2022-10-17T14:47:24;20.20;99.90
8965;DHT22;4517;49.020;12.066;2022-10-17T14:50:03;20.20;99.90
8965;DHT22;4517;49.020;12.066;2022-10-17T14:52:30;20.10;99.90
8965;DHT22;4517;49.020;12.066;2022-10-17T14:54:57;20.10;99.90
8965;DHT22;4517;49.020;12.066;2022-10-17T14:57:46;20.00;99.90
8965;DHT22;4517;49.020;12.066;2022-10-17T15:00:14;19.90;99.90
8965;DHT22;4517;49.020;12.066;2022-10-17T15:02:40;19.90;99.90
8965;DHT22;4517;49.020;12.066;2022-10-17T15:05:05;19.90;99.90
8965;DHT22;4517;49.020;12.066;2022-10-17T15:07:31;19.90;99.90
8965;DHT22;4517;49.020;12.066;2022-10-17T15:09:56;19.80;99.90
8965;DHT22;4517;49.020;12.066;2022-10-17T15:12:23;19.70;99.90
8965;DHT22;4517;49.020;12.066;2022-10-17T15:14:50;19.60;99.90
8965;DHT22;4517;49.020;12.066;2022-10-17T15:17:27;19.60;99.90
8965;DHT22;4517;49.020;12.066;2022-10-17T15:19:55;19.50;99.90
8965;DHT22;4517;49.020;12.066;2022-10-17T15:22:21;19.50;99.90
8965;DHT22;4517;49.020;12.066;2022-10-17T15:24:47;19.40;99.90
8965;DHT22;4517;49.020;12.066;2022-10-17T15:27:23;19.30;99.90
8965;DHT22;4517;49.020;12.066;2022-10-17T15:29:51;19.20;99.90
8965;DHT22;4517;49.020;12.066;2022-10-17T15:32:17;19.20;99.90
8965;DHT22;4517;49.020;12.066;2022-10-17T15:34:43;19.10;99.90
8965;DHT22;4517;49.020;12.066;2022-10-17T15:37:21;19.00;99.90
8965;DHT22;4517;49.020;12.066;2022-10-17T15:39:52;18.90;99.90
8965;DHT22;4517;49.020;12.066;2022-10-17T15:42:25;18.90;99.90
8965;DHT22;4517;49.020;12.066;2022-10-17T15:44:51;18.80;99.90
8965;DHT22;4517;49.020;12.066;2022-10-17T15:49:48;18.70;99.90
8965;DHT22;4517;49.020;12.066;2022-10-17T15:52:14;18.70;99.90
8965;DHT22;4517;49.020;12.066;2022-10-17T15:54:40;18.60;99.90
8965;DHT22;4517;49.020;12.066;2022-10-17T15:57:05;18.40;99.90
8965;DHT22;4517;49.020;12.066;2022-10-17T15:59:32;18.30;99.90
8965;DHT22;4517;49.020;12.066;2022-10-17T16:01:59;18.30;99.90
8965;DHT22;4517;49.020;12.066;2022-10-17T16:04:24;18.30;99.90
8965;DHT22;4517;49.020;12.066;2022-10-17T16:06:51;18.20;99.90
8965;DHT22;4517;49.020;12.066;2022-10-17T16:09:17;18.10;99.90
8965;DHT22;4517;49.020;12.066;2022-10-17T16:11:43;17.90;99.90
8965;DHT22;4517;49.020;12.066;2022-10-17T16:14:11;17.90;99.90
8965;DHT22;4517;49.020;12.066;2022-10-17T16:16:37;17.90;99.90
8965;DHT22;4517;49.020;12.066;2022-10-17T16:19:03;17.70;99.90
8965;DHT22;4517;49.020;12.066;2022-10-17T16:21:31;17.60;99.90
8965;DHT22;4517;49.020;12.066;2022-10-17T16:23:58;17.50;99.90
8965;DHT22;4517;49.020;12.066;2022-10-17T16:26:25;17.40;99.90
8965;DHT22;4517;49.020;12.066;2022-10-17T16:28:50;17.30;99.90
8965;DHT22;4517;49.020;12.066;2022-10-17T16:31:23;17.30;99.90
8965;DHT22;4517;49.020;12.066;2022-10-17T16:33:52;17.10;99.90
8965;DHT22;4517;49.020;12.066;2022-10-17T16:36:18;17.00;99.90
8965;DHT22;4517;49.020;12.066;2022-10-17T16:38:45;16.80;99.90
8965;DHT22;4517;49.020;12.066;2022-10-17T16:41:22;16.50;99.90
8965;DHT22;4517;49.020;12.066;2022-10-17T16:43:49;16.40;99.90
8965;DHT22;4517;49.020;12.066;2022-10-17T16:46:15;16.30;99.90
8965;DHT22;4517;49.020;12.066;2022-10-17T16:48:42;16.00;99.90
8965;DHT22;4517;49.020;12.066;2022-10-17T16:51:09;15.90;99.90
8965;DHT22;4517;49.020;12.066;2022-10-17T16:53:35;15.70;99.90
8965;DHT22;4517;49.020;12.066;2022-10-17T16:56:05;15.70;99.90
8965;DHT22;4517;49.020;12.066;2022-10-17T16:58:31;15.60;99.90
8965;DHT22;4517;49.020;12.066;2022-10-17T17:01:04;15.50;99.90
8965;DHT22;4517;49.020;12.066;2022-10-17T17:03:34;15.40;99.90
8965;DHT22;4517;49.020;12.066;2022-10-17T17:06:00;15.30;99.90
8965;DHT22;4517;49.020;12.066;2022-10-17T17:08:25;15.30;99.90
8965;DHT22;4517;49.020;12.066;2022-10-17T17:10:51;15.30;99.90
8965;DHT22;4517;49.020;12.066;2022-10-17T17:13:18;15.30;99.90
8965;DHT22;4517;49.020;12.066;2022-10-17T17:15:44;15.30;99.90
8965;DHT22;4517;49.020;12.066;2022-10-17T17:18:10;15.40;99.90
8965;DHT22;4517;49.020;12.066;2022-10-17T17:20:37;15.40;99.90
8965;DHT22;4517;49.020;12.066;2022-10-17T17:23:02;15.30;99.90
8965;DHT22;4517;49.020;12.066;2022-10-17T17:25:28;15.30;99.90
8965;DHT22;4517;49.020;12.066;2022-10-17T17:27:53;15.10;99.90
8965;DHT22;4517;49.020;12.066;2022-10-17T17:30:19;15.00;99.90
8965;DHT22;4517;49.020;12.066;2022-10-17T17:32:45;14.90;99.90
8965;DHT22;4517;49.020;12.066;2022-10-17T17:35:10;14.70;99.90
8965;DHT22;4517;49.020;12.066;2022-10-17T17:37:36;14.50;99.90
8965;DHT22;4517;49.020;12.066;2022-10-17T17:40:01;14.50;99.90
8965;DHT22;4517;49.020;12.066;2022-10-17T17:42:27;14.50;99.90
8965;DHT22;4517;49.020;12.066;2022-10-17T17:44:53;14.40;99.90
8965;DHT22;4517;49.020;12.066;2022-10-17T17:47:18;14.30;99.90
8965;DHT22;4517;49.020;12.066;2022-10-17T17:49:44;14.30;99.90
8965;DHT22;4517;49.020;12.066;2022-10-17T17:52:09;14.30;99.90